Time;durP1;ratioP1;P1;durP2;ratioP2;P2;SDS_P1;SDS_P2;PMS_P1;PMS_P2;Temp;Humidity;BMP_temperature;BMP_pressure;BME280_temperature;BME280_humidity;BME280_pressure;Samples;Min_cycle;Max_cycle;Signal;HPM_P1;HPM_P2
2023/08/20 00:00:28;;;;;;;12.82;5.18;;;;;;;17.91;100.00;101998.13;5104587;28;20020;-54
2023/08/20 00:03:11;;;;;;;10.73;4.78;;;;;;;17.85;100.00;101995.09;5097397;28;20031;-51
2023/08/20 00:05:38;;;;;;;11.02;4.30;;;;;;;17.88;100.00;101998.41;5097889;28;20028;-51
2023/08/20 00:08:04;;;;;;;8.48;4.07;;;;;;;17.85;100.00;101993.28;5100028;28;20118;-52
2023/08/20 00:10:29;;;;;;;11.15;3.83;;;;;;;17.84;100.00;101994.28;5102800;28;20157;-50
2023/08/20 00:12:55;;;;;;;11.35;4.15;;;;;;;17.79;100.00;102001.91;5107288;28;20374;-51
2023/08/20 00:15:22;;;;;;;8.90;3.88;;;;;;;17.78;100.00;101986.75;5098881;28;20057;-51
2023/08/20 00:17:47;;;;;;;5.78;3.67;;;;;;;17.76;100.00;101975.28;5102857;28;20062;-52
2023/08/20 00:20:14;;;;;;;7.05;3.60;;;;;;;17.71;100.00;101978.38;5099710;28;20420;-50
2023/08/20 00:22:41;;;;;;;7.35;3.38;;;;;;;17.70;100.00;101973.16;5105622;28;20031;-51
2023/08/20 00:25:07;;;;;;;9.85;3.88;;;;;;;17.68;100.00;101973.28;5103968;28;20031;-51
2023/08/20 00:27:33;;;;;;;7.63;3.45;;;;;;;17.68;100.00;101983.19;5100712;28;20032;-52
2023/08/20 00:29:58;;;;;;;7.78;3.67;;;;;;;17.62;100.00;101991.78;5099853;28;20055;-51
2023/08/20 00:32:24;;;;;;;12.77;3.67;;;;;;;17.62;100.00;101995.34;5103525;28;20127;-51
2023/08/20 00:34:49;;;;;;;9.52;3.45;;;;;;;17.61;100.00;101992.78;5103026;28;20489;-51
2023/08/20 00:37:15;;;;;;;8.60;3.42;;;;;;;17.59;100.00;101994.75;5102618;28;20031;-51
2023/08/20 00:39:40;;;;;;;8.48;4.32;;;;;;;17.54;100.00;102009.44;5101482;28;20086;-52
2023/08/20 00:42:07;;;;;;;6.70;3.42;;;;;;;17.56;100.00;102010.13;5099644;28;20027;-53
2023/08/20 00:44:33;;;;;;;10.02;3.95;;;;;;;17.55;100.00;102012.97;5103383;28;20031;-52
2023/08/20 00:47:00;;;;;;;6.05;3.60;;;;;;;17.54;100.00;102019.34;5102754;28;20038;-52
2023/08/20 00:49:25;;;;;;;9.75;3.70;;;;;;;17.54;100.00;102022.03;5102457;28;20146;-51
2023/08/20 00:51:52;;;;;;;9.48;3.78;;;;;;;17.54;100.00;102030.09;5097867;28;20074;-53
2023/08/20 00:54:17;;;;;;;7.68;3.40;;;;;;;17.55;100.00;102021.88;5100406;28;20213;-54
2023/08/20 00:56:44;;;;;;;9.95;4.22;;;;;;;17.53;100.00;102028.38;5105346;27;20564;-52
2023/08/20 00:59:10;;;;;;;11.25;4.28;;;;;;;17.53;100.00;102039.94;5097904;28;20050;-51
2023/08/20 01:01:35;;;;;;;8.48;3.65;;;;;;;17.54;100.00;102038.13;5099318;28;20473;-51
2023/08/20 01:04:01;;;;;;;8.77;3.53;;;;;;;17.53;100.00;102047.16;5098252;28;20477;-52
2023/08/20 01:06:52;;;;;;;8.65;3.35;;;;;;;17.57;100.00;102057.53;5099761;28;20063;-51
2023/08/20 01:09:29;;;;;;;7.05;2.97;;;;;;;17.54;100.00;102054.25;5102583;28;20239;-52
2023/08/20 01:11:59;;;;;;;8.32;3.08;;;;;;;17.48;100.00;102052.94;5104618;28;20110;-51
2023/08/20 01:14:24;;;;;;;8.48;3.30;;;;;;;17.59;100.00;102067.28;5101170;28;20054;-52
2023/08/20 01:16:49;;;;;;;7.03;3.10;;;;;;;17.62;100.00;102064.31;5100627;28;20032;-50
2023/08/20 01:19:18;;;;;;;8.98;3.10;;;;;;;17.59;100.00;102056.56;5105955;28;20055;-51
2023/08/20 01:22:06;;;;;;;10.60;3.80;;;;;;;17.62;100.00;102051.75;5102222;28;20027;-51
2023/08/20 01:24:46;;;;;;;7.40;3.13;;;;;;;17.61;100.00;102052.72;5105771;28;20034;-51
2023/08/20 01:27:52;;;;;;;8.32;3.05;;;;;;;17.66;100.00;102052.34;5095927;28;20029;-51
2023/08/20 01:30:21;;;;;;;7.32;2.75;;;;;;;17.67;100.00;102056.69;5093101;28;20113;-51
2023/08/20 01:32:49;;;;;;;10.27;3.10;;;;;;;17.68;100.00;102055.72;5101307;28;20036;-51
2023/08/20 01:35:16;;;;;;;11.77;3.72;;;;;;;17.65;100.00;102053.31;5104360;28;20469;-50
2023/08/20 01:37:41;;;;;;;6.85;2.97;;;;;;;17.70;100.00;102059.13;5100858;28;20032;-50
2023/08/20 01:40:10;;;;;;;9.25;3.45;;;;;;;17.71;100.00;102050.09;5101495;28;20358;-50
2023/08/20 01:42:36;;;;;;;9.67;3.90;;;;;;;17.74;100.00;102050.66;5099900;28;20028;-51
2023/08/20 01:45:01;;;;;;;9.10;3.75;;;;;;;17.74;100.00;102061.41;5102301;28;20024;-51
2023/08/20 01:47:26;;;;;;;10.50;3.60;;;;;;;17.72;100.00;102049.13;5105003;28;20043;-51
2023/08/20 01:49:51;;;;;;;11.88;3.63;;;;;;;17.73;100.00;102054.31;5103480;28;20035;-51
2023/08/20 01:52:17;;;;;;;7.13;3.17;;;;;;;17.75;100.00;102060.44;5100141;28;20036;-50
2023/08/20 01:54:42;;;;;;;10.45;3.35;;;;;;;17.78;100.00;102053.09;5103002;27;20035;-51
2023/08/20 01:57:07;;;;;;;10.60;3.95;;;;;;;17.84;100.00;102057.94;5095083;28;20023;-50
2023/08/20 01:59:33;;;;;;;6.28;2.80;;;;;;;17.85;100.00;102071.22;5100831;28;20013;-51
2023/08/20 02:01:58;;;;;;;11.35;3.35;;;;;;;17.86;100.00;102080.13;5101443;28;20497;-50
2023/08/20 02:04:23;;;;;;;9.43;3.15;;;;;;;17.87;100.00;102082.72;5101953;28;20115;-51
2023/08/20 02:06:48;;;;;;;13.13;3.80;;;;;;;17.89;100.00;102085.28;5102664;28;20050;-50
2023/08/20 02:09:14;;;;;;;9.40;3.50;;;;;;;17.91;100.00;102086.81;5101645;28;20100;-50
2023/08/20 02:11:39;;;;;;;5.60;3.20;;;;;;;17.94;100.00;102077.66;5101035;28;20466;-51
2023/08/20 02:14:04;;;;;;;9.13;2.88;;;;;;;17.95;100.00;102076.66;5101109;27;20066;-51
2023/08/20 02:16:30;;;;;;;9.80;3.28;;;;;;;17.96;100.00;102077.53;5101674;28;20070;-51
2023/08/20 02:18:55;;;;;;;8.18;3.38;;;;;;;17.96;100.00;102081.06;5103657;28;20385;-51
2023/08/20 02:21:20;;;;;;;10.23;3.45;;;;;;;17.97;100.00;102084.59;5099655;28;20107;-51
2023/08/20 02:23:46;;;;;;;8.02;3.20;;;;;;;17.96;100.00;102082.91;5099349;28;20157;-51
2023/08/20 02:26:11;;;;;;;9.77;3.45;;;;;;;17.92;100.00;102093.06;5097449;28;20035;-51
2023/08/20 02:28:36;;;;;;;10.57;3.40;;;;;;;17.95;100.00;102090.09;5101268;28;20386;-51
2023/08/20 02:31:04;;;;;;;8.55;3.58;;;;;;;17.92;100.00;102085.84;5101466;28;20371;-52
2023/08/20 02:33:30;;;;;;;8.60;3.05;;;;;;;17.92;100.00;102085.84;5100515;28;20078;-51
2023/08/20 02:35:55;;;;;;;6.82;3.15;;;;;;;17.94;100.00;102081.19;5097533;28;20060;-52
2023/08/20 02:38:20;;;;;;;9.23;3.92;;;;;;;17.94;100.00;102083.88;5100220;28;20505;-51
2023/08/20 02:40:46;;;;;;;8.45;3.40;;;;;;;17.97;100.00;102076.53;5101965;28;20031;-51
2023/08/20 02:43:11;;;;;;;10.63;3.42;;;;;;;17.96;100.00;102081.06;5101182;28;20099;-51
2023/08/20 02:45:41;;;;;;;10.85;3.28;;;;;;;17.94;100.00;102075.81;5102602;28;20023;-51
2023/08/20 02:48:07;;;;;;;7.68;3.25;;;;;;;17.89;100.00;102074.53;5102547;28;20449;-51
2023/08/20 02:50:32;;;;;;;9.23;3.42;;;;;;;17.85;100.00;102071.22;5100836;28;20101;-53
2023/08/20 02:52:57;;;;;;;6.72;3.20;;;;;;;17.83;100.00;102075.88;5094837;28;20070;-51
2023/08/20 02:55:23;;;;;;;10.70;3.40;;;;;;;17.80;100.00;102073.44;5100180;28;20073;-52
2023/08/20 02:57:48;;;;;;;6.03;3.45;;;;;;;17.80;100.00;102073.44;5103781;27;20051;-51
2023/08/20 03:00:14;;;;;;;5.68;3.20;;;;;;;17.73;100.00;102075.81;5096608;28;20105;-51
2023/08/20 03:02:41;;;;;;;8.13;3.30;;;;;;;17.67;100.00;102068.31;5097281;28;20028;-51
2023/08/20 03:05:08;;;;;;;8.70;3.72;;;;;;;17.64;100.00;102070.44;5107266;28;20380;-51
2023/08/20 03:07:34;;;;;;;7.00;3.15;;;;;;;17.62;100.00;102070.56;5101131;28;20028;-51
2023/08/20 03:09:59;;;;;;;8.57;3.50;;;;;;;17.54;100.00;102063.16;5101424;28;20580;-51
2023/08/20 03:12:24;;;;;;;6.95;3.60;;;;;;;17.55;100.00;102064.00;5101874;28;20020;-53
2023/08/20 03:14:49;;;;;;;7.68;3.17;;;;;;;17.49;100.00;102068.09;5102074;28;20461;-51
2023/08/20 03:17:15;;;;;;;9.55;3.33;;;;;;;17.46;100.00;102068.34;5096555;28;20419;-52
2023/08/20 03:19:55;;;;;;;7.55;3.28;;;;;;;17.44;100.00;102064.94;5103109;28;20428;-51
2023/08/20 03:22:20;;;;;;;8.52;3.35;;;;;;;17.36;100.00;102062.91;5098680;28;20059;-51
2023/08/20 03:24:46;;;;;;;6.85;3.30;;;;;;;17.37;100.00;102064.63;5104512;28;20116;-50
2023/08/20 03:27:11;;;;;;;8.80;3.85;;;;;;;17.34;100.00;102072.94;5100173;28;20031;-51
2023/08/20 03:29:36;;;;;;;6.90;3.28;;;;;;;17.27;100.00;102068.22;5100869;28;20094;-50
2023/08/20 03:32:02;;;;;;;10.38;3.47;;;;;;;17.25;100.00;102065.66;5098281;28;20538;-51
2023/08/20 03:34:27;;;;;;;6.47;3.22;;;;;;;17.18;100.00;102070.69;5098849;28;20024;-51
2023/08/20 03:36:52;;;;;;;7.28;3.53;;;;;;;17.21;100.00;102066.91;5102274;28;20051;-50
2023/08/20 03:39:18;;;;;;;9.63;3.97;;;;;;;17.16;100.00;102066.47;5097084;28;20535;-52
2023/08/20 03:41:43;;;;;;;8.20;3.90;;;;;;;17.11;100.00;102061.47;5103164;28;20115;-51
2023/08/20 03:44:08;;;;;;;8.13;3.70;;;;;;;17.08;100.00;102056.38;5100583;28;20024;-51
2023/08/20 03:46:34;;;;;;;7.35;3.83;;;;;;;17.04;100.00;102062.13;5095886;28;20024;-51
2023/08/20 03:48:59;;;;;;;7.25;3.63;;;;;;;16.97;100.00;102067.16;5097857;28;20382;-54
2023/08/20 03:51:24;;;;;;;6.82;4.03;;;;;;;16.94;100.00;102068.28;5092435;28;20023;-52
2023/08/20 03:53:50;;;;;;;6.70;3.53;;;;;;;16.93;100.00;102076.47;5096558;28;20447;-51
2023/08/20 03:56:15;;;;;;;7.80;3.72;;;;;;;16.93;100.00;102081.84;5099754;28;20027;-51
2023/08/20 03:58:40;;;;;;;8.77;4.18;;;;;;;16.90;100.00;102076.72;5096963;28;20024;-51
2023/08/20 04:01:05;;;;;;;7.18;3.92;;;;;;;16.89;100.00;102083.09;5098959;28;20063;-52
2023/08/20 04:03:31;;;;;;;10.32;4.25;;;;;;;16.82;100.00;102082.72;5101573;28;20011;-51
2023/08/20 04:05:57;;;;;;;8.50;4.10;;;;;;;16.76;100.00;102086.75;5097406;28;20061;-51
2023/08/20 04:08:22;;;;;;;7.10;3.90;;;;;;;16.74;100.00;102095.91;5101184;28;20409;-52
2023/08/20 04:10:47;;;;;;;8.07;3.97;;;;;;;16.68;100.00;102085.69;5101966;28;20056;-51
2023/08/20 04:13:13;;;;;;;10.38;3.88;;;;;;;16.65;100.00;102093.00;5100686;28;20061;-51
2023/08/20 04:15:40;;;;;;;7.05;4.00;;;;;;;16.61;100.00;102093.38;5097011;28;20036;-52
2023/08/20 04:18:05;;;;;;;8.65;4.07;;;;;;;16.57;100.00;102097.28;5099584;28;20440;-51
2023/08/20 04:20:31;;;;;;;8.27;3.85;;;;;;;16.59;100.00;102092.66;5096318;28;20049;-52
2023/08/20 04:22:56;;;;;;;8.13;4.03;;;;;;;16.58;100.00;102099.00;5099290;28;20031;-52
2023/08/20 04:25:21;;;;;;;8.70;3.95;;;;;;;16.56;100.00;102100.97;5095221;28;20028;-54
2023/08/20 04:27:47;;;;;;;6.20;3.70;;;;;;;16.54;100.00;102101.09;5099004;28;20047;-52
2023/08/20 04:30:12;;;;;;;5.57;3.60;;;;;;;16.51;100.00;102100.50;5099021;28;20051;-51
2023/08/20 04:32:38;;;;;;;7.05;3.90;;;;;;;16.52;100.00;102096.81;5093690;28;20140;-51
2023/08/20 04:35:03;;;;;;;9.02;4.30;;;;;;;16.43;100.00;102099.25;5095841;28;20016;-53
2023/08/20 04:37:28;;;;;;;5.90;3.58;;;;;;;16.44;100.00;102092.09;5100030;28;20066;-53
2023/08/20 04:39:54;;;;;;;6.38;3.65;;;;;;;16.40;100.00;102104.91;5097500;28;20024;-51
2023/08/20 04:42:19;;;;;;;7.88;4.05;;;;;;;16.38;100.00;102103.31;5098216;28;20024;-52
2023/08/20 04:44:44;;;;;;;9.15;3.88;;;;;;;16.32;100.00;102102.00;5099265;28;20115;-50
2023/08/20 04:47:13;;;;;;;7.57;4.30;;;;;;;16.31;100.00;102102.13;5099221;28;20016;-51
2023/08/20 04:49:39;;;;;;;8.93;4.22;;;;;;;16.28;100.00;102100.53;5099220;28;20055;-51
2023/08/20 04:52:04;;;;;;;5.85;3.65;;;;;;;16.29;100.00;102104.91;5099329;28;20066;-52
2023/08/20 04:54:30;;;;;;;7.78;4.28;;;;;;;16.28;100.00;102106.72;5093217;28;20027;-51
2023/08/20 04:56:55;;;;;;;10.07;4.28;;;;;;;16.29;100.00;102107.59;5096242;28;20709;-51
2023/08/20 04:59:20;;;;;;;8.43;4.50;;;;;;;16.26;100.00;102108.69;5104510;28;20422;-51
2023/08/20 05:01:46;;;;;;;8.23;4.50;;;;;;;16.27;100.00;102114.91;5102941;28;20031;-51
2023/08/20 05:04:11;;;;;;;7.82;4.40;;;;;;;16.29;100.00;102112.97;5098288;28;20012;-51
2023/08/20 05:06:37;;;;;;;8.00;4.38;;;;;;;16.26;100.00;102116.72;5103995;28;20032;-51
2023/08/20 05:09:03;;;;;;;7.97;4.32;;;;;;;16.30;100.00;102117.31;5097428;28;20028;-51
2023/08/20 05:11:31;;;;;;;6.45;4.63;;;;;;;16.27;100.00;102117.59;5103229;28;20358;-51
2023/08/20 05:13:56;;;;;;;9.82;4.53;;;;;;;16.28;100.00;102108.56;5101446;28;20036;-51
2023/08/20 05:16:22;;;;;;;9.98;4.85;;;;;;;16.27;100.00;102115.75;5105206;28;20039;-51
2023/08/20 05:18:47;;;;;;;8.00;4.65;;;;;;;16.32;100.00;102122.56;5096988;28;20379;-51
2023/08/20 05:21:13;;;;;;;6.72;4.28;;;;;;;16.33;100.00;102117.09;5102620;28;20020;-51
2023/08/20 05:23:40;;;;;;;6.93;4.65;;;;;;;16.35;100.00;102119.66;5101973;28;20101;-52
2023/08/20 05:26:07;;;;;;;9.77;4.93;;;;;;;16.35;100.00;102125.84;5105279;28;20020;-51
2023/08/20 05:28:33;;;;;;;6.97;4.40;;;;;;;16.38;100.00;102122.91;5101936;28;20016;-52
2023/08/20 05:30:58;;;;;;;9.05;4.68;;;;;;;16.38;100.00;102133.66;5102447;28;20042;-51
2023/08/20 05:33:24;;;;;;;5.93;4.65;;;;;;;16.39;100.00;102137.19;5102841;28;20028;-52
2023/08/20 05:35:50;;;;;;;7.10;4.55;;;;;;;16.41;100.00;102127.19;5105289;28;20054;-51
2023/08/20 05:38:16;;;;;;;7.88;5.18;;;;;;;16.43;100.00;102133.28;5102297;28;20099;-55
2023/08/20 05:40:41;;;;;;;9.80;4.97;;;;;;;16.45;100.00;102140.25;5103170;28;20024;-54
2023/08/20 05:43:07;;;;;;;8.35;4.80;;;;;;;16.51;100.00;102135.34;5098169;28;20097;-51
2023/08/20 05:45:32;;;;;;;8.70;5.30;;;;;;;16.51;100.00;102130.00;5103271;28;20024;-51
2023/08/20 05:47:57;;;;;;;11.15;5.20;;;;;;;16.56;100.00;102139.34;5104392;28;20492;-52
2023/08/20 05:50:23;;;;;;;6.65;5.03;;;;;;;16.56;100.00;102138.50;5102652;28;20031;-51
2023/08/20 05:52:48;;;;;;;9.50;5.28;;;;;;;16.58;100.00;102139.22;5101826;28;20030;-52
2023/08/20 05:55:14;;;;;;;9.95;5.38;;;;;;;16.62;100.00;102132.63;5100159;28;20032;-51
2023/08/20 05:57:40;;;;;;;9.55;5.13;;;;;;;16.66;100.00;102128.72;5100888;28;20378;-51
2023/08/20 06:00:06;;;;;;;12.38;5.55;;;;;;;16.67;100.00;102127.75;5104858;28;20061;-53
2023/08/20 06:02:31;;;;;;;9.68;5.15;;;;;;;16.72;100.00;102130.03;5098395;28;20040;-50
2023/08/20 06:04:57;;;;;;;9.55;5.03;;;;;;;16.76;100.00;102126.13;5096487;28;20431;-51
2023/08/20 06:07:22;;;;;;;11.88;5.70;;;;;;;16.82;100.00;102133.69;5098698;28;20146;-52
2023/08/20 06:09:49;;;;;;;11.30;5.75;;;;;;;16.85;100.00;102124.56;5101532;28;20032;-51
2023/08/20 06:12:15;;;;;;;11.70;5.75;;;;;;;16.89;100.00;102131.38;5101071;28;20020;-52
2023/08/20 06:14:41;;;;;;;9.82;5.05;;;;;;;16.93;100.00;102132.81;5104419;28;20409;-51
2023/08/20 06:17:06;;;;;;;11.85;5.55;;;;;;;16.99;100.00;102135.00;5098139;28;20019;-51
2023/08/20 06:19:31;;;;;;;11.40;5.60;;;;;;;17.02;100.00;102138.28;5103371;28;20363;-51
2023/08/20 06:21:57;;;;;;;12.20;5.47;;;;;;;17.10;100.00;102134.09;5098244;28;20280;-52
2023/08/20 06:24:23;;;;;;;13.23;5.30;;;;;;;17.17;100.00;102132.63;5100258;28;20627;-50
2023/08/20 06:26:48;;;;;;;14.68;5.63;;;;;;;17.22;100.00;102138.44;5099977;28;20436;-51
2023/08/20 06:29:13;;;;;;;13.05;5.95;;;;;;;17.25;100.00;102132.78;5102909;28;20020;-51
2023/08/20 06:31:39;;;;;;;14.77;6.07;;;;;;;17.31;100.00;102137.66;5100787;28;20036;-50
2023/08/20 06:34:04;;;;;;;12.90;6.18;;;;;;;17.37;100.00;102141.66;5086472;28;20481;-52
2023/08/20 06:36:29;;;;;;;10.27;6.20;;;;;;;17.43;100.00;102138.44;5089476;28;20115;-53
2023/08/20 06:38:55;;;;;;;11.05;6.25;;;;;;;17.50;100.00;102139.63;5094665;28;20035;-51
2023/08/20 06:41:20;;;;;;;10.98;6.38;;;;;;;17.59;100.00;102142.53;5092742;28;20429;-51
2023/08/20 06:43:45;;;;;;;19.25;7.75;;;;;;;17.64;100.00;102140.28;5095187;28;20040;-51
2023/08/20 06:46:11;;;;;;;16.30;6.68;;;;;;;17.70;100.00;102135.22;5098193;28;20031;-51
2023/08/20 06:48:36;;;;;;;19.25;6.97;;;;;;;17.78;100.00;102139.91;5089435;28;21071;-50
2023/08/20 06:51:28;;;;;;;15.80;6.63;;;;;;;17.88;100.00;102143.53;5093146;28;20047;-51
2023/08/20 06:53:54;;;;;;;15.60;6.70;;;;;;;17.98;100.00;102146.28;5096095;28;20080;-51
2023/08/20 06:56:20;;;;;;;17.75;6.25;;;;;;;18.05;100.00;102139.41;5102477;28;20028;-51
2023/08/20 06:58:46;;;;;;;15.02;7.47;;;;;;;18.15;100.00;102143.94;5097521;28;20058;-55
2023/08/20 07:01:12;;;;;;;15.20;7.10;;;;;;;18.30;100.00;102138.06;5101877;28;20086;-53
2023/08/20 07:03:39;;;;;;;12.73;6.13;;;;;;;18.49;100.00;102139.94;5095378;28;20031;-55
2023/08/20 07:06:05;;;;;;;16.67;6.55;;;;;;;18.76;100.00;102145.69;5086860;28;20012;-56
2023/08/20 07:08:31;;;;;;;13.43;6.35;;;;;;;18.92;100.00;102156.78;5095504;28;20043;-56
2023/08/20 07:10:56;;;;;;;11.27;5.88;;;;;;;19.19;100.00;102157.91;5100050;28;20030;-56
2023/08/20 07:13:22;;;;;;;11.68;5.40;;;;;;;19.47;100.00;102158.91;5101759;28;20039;-55
2023/08/20 07:15:48;;;;;;;11.93;5.93;;;;;;;19.72;98.87;102160.13;5095339;28;20024;-55
2023/08/20 07:18:14;;;;;;;14.10;6.32;;;;;;;19.92;95.45;102157.41;5092398;28;20362;-49
2023/08/20 07:20:41;;;;;;;16.25;5.57;;;;;;;20.33;97.82;102160.63;5089228;28;20078;-49
2023/08/20 07:23:07;;;;;;;11.07;4.88;;;;;;;20.66;93.78;102155.66;5090901;28;20039;-48
2023/08/20 07:25:32;;;;;;;13.00;5.13;;;;;;;20.85;91.58;102165.44;5092981;28;20020;-49
2023/08/20 07:27:59;;;;;;;11.18;5.10;;;;;;;21.23;90.52;102161.63;5094094;28;20020;-50
2023/08/20 07:30:25;;;;;;;10.90;4.35;;;;;;;21.57;88.75;102165.44;5093414;28;20397;-49
2023/08/20 07:32:50;;;;;;;10.68;4.28;;;;;;;21.79;87.10;102169.47;5090944;28;20020;-49
2023/08/20 07:35:16;;;;;;;10.55;4.47;;;;;;;22.02;84.61;102171.66;5094286;28;20035;-49
2023/08/20 07:37:41;;;;;;;9.45;4.50;;;;;;;22.15;81.82;102163.94;5092829;28;20024;-49
2023/08/20 07:40:07;;;;;;;14.00;4.30;;;;;;;22.54;83.18;102169.69;5094863;28;20027;-50
2023/08/20 07:42:32;;;;;;;9.32;4.38;;;;;;;22.75;81.21;102171.13;5091125;28;20020;-49
2023/08/20 07:44:57;;;;;;;9.52;4.05;;;;;;;23.01;79.36;102168.25;5094002;28;20473;-50
2023/08/20 07:47:23;;;;;;;10.35;4.25;;;;;;;23.18;78.95;102169.19;5090788;28;20490;-50
2023/08/20 07:49:48;;;;;;;12.48;3.97;;;;;;;23.37;74.33;102173.41;5093492;28;20118;-51
2023/08/20 07:52:14;;;;;;;15.02;4.45;;;;;;;23.61;74.69;102177.94;5098300;28;20073;-49
2023/08/20 07:54:39;;;;;;;9.25;4.05;;;;;;;23.89;75.61;102179.47;5091149;28;20077;-49
2023/08/20 07:57:04;;;;;;;13.50;4.38;;;;;;;24.12;74.96;102180.41;5092801;28;20024;-50
2023/08/20 07:59:30;;;;;;;13.45;4.15;;;;;;;24.24;72.79;102182.75;5089591;28;20044;-49
2023/08/20 08:01:55;;;;;;;15.88;4.30;;;;;;;24.49;70.89;102176.19;5094540;28;20028;-50
2023/08/20 08:04:21;;;;;;;8.82;3.33;;;;;;;24.61;68.18;102173.09;5097391;28;20055;-49
2023/08/20 08:06:46;;;;;;;7.85;3.58;;;;;;;24.86;68.64;102180.06;5092666;28;20027;-49
2023/08/20 08:09:20;;;;;;;5.85;3.40;;;;;;;25.22;69.57;102173.22;5090564;28;20070;-50
2023/08/20 08:11:46;;;;;;;9.07;4.18;;;;;;;25.42;67.57;102184.47;5088791;28;20028;-49
2023/08/20 08:14:11;;;;;;;6.10;3.50;;;;;;;25.57;62.47;102189.94;5091285;28;20065;-49
2023/08/20 08:16:37;;;;;;;5.93;3.10;;;;;;;25.73;62.76;102192.50;5089006;28;20047;-49
2023/08/20 08:19:02;;;;;;;8.45;3.13;;;;;;;25.77;61.13;102193.81;5089957;28;20019;-49
2023/08/20 08:21:27;;;;;;;6.00;2.83;;;;;;;26.00;61.61;102196.50;5092010;28;20024;-49
2023/08/20 08:23:53;;;;;;;6.57;2.97;;;;;;;26.13;62.28;102184.94;5096023;28;20020;-49
2023/08/20 08:26:18;;;;;;;7.10;3.10;;;;;;;26.19;59.50;102188.78;5093778;28;20293;-49
2023/08/20 08:28:43;;;;;;;6.80;2.83;;;;;;;26.40;60.34;102188.84;5097371;28;20028;-49
2023/08/20 08:31:09;;;;;;;8.00;3.00;;;;;;;26.46;58.67;102187.22;5098047;28;20024;-50
2023/08/20 08:33:34;;;;;;;9.23;3.35;;;;;;;26.70;57.77;102191.56;5102343;28;20768;-49
2023/08/20 08:35:59;;;;;;;6.20;2.72;;;;;;;27.03;57.40;102192.94;5096021;28;20060;-49
2023/08/20 08:38:24;;;;;;;5.15;2.45;;;;;;;27.13;54.69;102191.59;5105727;28;20026;-49
2023/08/20 08:40:50;;;;;;;5.57;2.53;;;;;;;27.27;56.71;102192.53;5098870;28;20032;-49
2023/08/20 08:43:17;;;;;;;7.03;2.40;;;;;;;27.38;55.71;102183.03;5102500;28;20027;-49
2023/08/20 08:45:47;;;;;;;5.88;2.55;;;;;;;27.64;54.94;102193.28;5101048;28;20385;-50
2023/08/20 08:48:13;;;;;;;7.53;2.58;;;;;;;27.74;53.38;102189.38;5097593;28;20520;-50
2023/08/20 08:50:39;;;;;;;7.35;2.42;;;;;;;27.76;53.64;102190.00;5097294;28;20078;-51
2023/08/20 08:53:06;;;;;;;7.10;2.35;;;;;;;28.00;53.54;102191.47;5091246;28;20489;-51
2023/08/20 08:55:31;;;;;;;4.53;2.33;;;;;;;28.13;54.20;102185.22;5095327;28;20469;-50
2023/08/20 08:57:56;;;;;;;4.03;2.33;;;;;;;28.27;51.88;102183.41;5100655;28;20028;-50
2023/08/20 09:00:22;;;;;;;5.80;2.47;;;;;;;28.62;49.40;102186.09;5099487;28;20035;-50
2023/08/20 09:02:47;;;;;;;8.63;2.55;;;;;;;28.69;49.73;102185.06;5100540;28;20036;-49
2023/08/20 09:05:14;;;;;;;4.40;2.00;;;;;;;28.88;49.20;102191.66;5097834;28;20070;-51
2023/08/20 09:07:44;;;;;;;5.72;2.38;;;;;;;28.92;48.14;102194.81;5094007;28;20032;-50
2023/08/20 09:10:10;;;;;;;4.13;1.75;;;;;;;29.06;45.49;102193.78;5098371;28;20489;-49
2023/08/20 09:12:36;;;;;;;4.22;1.48;;;;;;;29.16;45.76;102191.47;5097342;28;20074;-50
2023/08/20 09:15:02;;;;;;;2.90;1.23;;;;;;;29.38;46.25;102195.91;5098105;28;20032;-49
2023/08/20 09:17:28;;;;;;;4.75;1.35;;;;;;;29.45;45.52;102194.03;5088929;28;20055;-49
2023/08/20 09:19:57;;;;;;;2.67;1.27;;;;;;;29.85;46.50;102185.81;5095497;28;20035;-50
2023/08/20 09:22:22;;;;;;;;;;;;;;;30.13;52.70;102190.13;5097231;28;20028;-51
2023/08/20 09:24:54;;;;;;;6.82;1.27;;;;;;;30.22;45.53;102181.47;5095402;28;20339;-51
2023/08/20 09:27:19;;;;;;;4.63;1.38;;;;;;;30.41;45.37;102187.97;5102766;28;20032;-50
2023/08/20 09:29:46;;;;;;;3.70;1.52;;;;;;;30.37;42.64;102194.94;5102041;28;20101;-50
2023/08/20 09:32:19;;;;;;;5.80;1.50;;;;;;;30.56;43.17;102189.56;5093237;28;20466;-50
2023/08/20 09:34:45;;;;;;;6.30;1.30;;;;;;;30.49;43.29;102191.50;5099265;28;20036;-49
2023/08/20 09:37:15;;;;;;;4.35;1.20;;;;;;;30.53;42.81;102195.53;5096333;28;20036;-51
2023/08/20 09:39:41;;;;;;;3.30;1.20;;;;;;;30.76;42.03;102197.69;5098220;28;20032;-50
2023/08/20 09:42:07;;;;;;;3.40;1.10;;;;;;;31.05;40.34;102192.69;5100768;28;20028;-49
2023/08/20 09:44:37;;;;;;;2.58;1.02;;;;;;;31.24;41.11;102197.19;5097260;28;20090;-50
2023/08/20 09:47:07;;;;;;;4.35;1.20;;;;;;;31.35;40.05;102196.47;5096439;28;20044;-49
2023/08/20 09:49:37;;;;;;;2.25;0.95;;;;;;;31.50;38.89;102190.63;5098040;28;20044;-49
2023/08/20 09:52:05;;;;;;;5.10;1.40;;;;;;;31.62;39.08;102188.00;5095531;28;20039;-49
2023/08/20 09:54:33;;;;;;;2.08;0.60;;;;;;;31.77;36.35;102187.66;5102474;28;20023;-49
2023/08/20 09:57:01;;;;;;;4.65;0.70;;;;;;;31.85;36.92;102170.88;5100320;28;20088;-50
2023/08/20 09:59:26;;;;;;;3.87;0.90;;;;;;;31.86;35.93;102183.56;5095548;28;20098;-49
2023/08/20 10:01:53;;;;;;;1.65;0.68;;;;;;;32.11;37.20;102188.19;5104964;28;20153;-49
2023/08/20 10:04:19;;;;;;;2.95;0.77;;;;;;;32.18;34.13;102188.91;5095104;28;20032;-50
2023/08/20 10:06:46;;;;;;;2.28;0.75;;;;;;;32.14;34.74;102189.59;5100361;28;20036;-52
2023/08/20 10:09:11;;;;;;;1.45;0.73;;;;;;;32.34;33.77;102181.09;5100886;28;20016;-49
2023/08/20 10:11:37;;;;;;;3.15;0.63;;;;;;;32.43;34.17;102182.47;5098761;28;20038;-50
2023/08/20 10:14:03;;;;;;;1.77;0.60;;;;;;;32.18;34.91;102185.34;5098807;28;20099;-50
2023/08/20 10:16:28;;;;;;;3.05;0.93;;;;;;;32.33;34.21;102184.94;5103985;28;20428;-50
2023/08/20 10:18:55;;;;;;;1.73;0.70;;;;;;;32.20;34.29;102188.69;5099678;28;20132;-49
2023/08/20 10:21:23;;;;;;;3.33;1.00;;;;;;;32.58;35.16;102182.91;5103338;28;20067;-49
2023/08/20 10:23:49;;;;;;;2.50;0.70;;;;;;;32.30;32.60;102179.91;5105761;28;20110;-50
2023/08/20 10:26:16;;;;;;;1.50;0.73;;;;;;;32.49;35.64;102176.03;5103423;28;20784;-49
2023/08/20 10:28:42;;;;;;;1.85;0.90;;;;;;;32.81;34.38;102173.91;5099645;28;20024;-49
2023/08/20 10:31:12;;;;;;;3.90;0.80;;;;;;;32.87;33.61;102176.81;5101844;28;20492;-50
2023/08/20 10:33:46;;;;;;;3.97;0.80;;;;;;;33.14;33.71;102177.22;5099030;28;20032;-49
2023/08/20 10:36:17;;;;;;;1.80;0.63;;;;;;;33.37;34.27;102176.44;5104514;28;20076;-49
2023/08/20 10:38:45;;;;;;;2.80;0.82;;;;;;;33.36;31.69;102181.13;5102687;28;20024;-52
2023/08/20 10:41:10;;;;;;;3.67;1.00;;;;;;;33.43;33.44;102180.16;5094281;28;20032;-53
2023/08/20 10:43:49;;;;;;;2.80;0.80;;;;;;;33.36;31.50;102181.13;5086769;28;20032;-50
2023/08/20 10:46:16;;;;;;;2.22;0.85;;;;;;;33.41;31.54;102180.41;5096989;28;20039;-51
2023/08/20 10:48:42;;;;;;;2.28;0.90;;;;;;;33.75;33.20;102180.66;5097578;28;20048;-53
2023/08/20 10:51:11;;;;;;;4.15;0.70;;;;;;;33.78;31.78;102169.16;5090965;28;20135;-51
2023/08/20 10:53:37;;;;;;;3.75;1.00;;;;;;;33.97;32.50;102172.59;5090942;28;20035;-52
2023/08/20 10:56:14;;;;;;;2.10;0.68;;;;;;;34.04;32.61;102173.31;5098174;28;20023;-50
2023/08/20 10:58:44;;;;;;;3.88;0.80;;;;;;;34.01;32.39;102178.44;5091285;28;20397;-52
2023/08/20 11:01:23;;;;;;;3.25;1.10;;;;;;;34.15;31.63;102182.59;5099748;28;20023;-50
2023/08/20 11:03:50;;;;;;;1.85;0.60;;;;;;;34.21;30.76;102175.34;5097421;28;20030;-53
2023/08/20 11:06:17;;;;;;;2.90;0.80;;;;;;;34.37;31.50;102180.03;5096818;28;20027;-52
2023/08/20 11:08:43;;;;;;;2.85;0.80;;;;;;;34.24;31.34;102178.44;5097665;28;20024;-49
2023/08/20 11:11:08;;;;;;;5.20;1.40;;;;;;;34.15;28.72;102174.34;5099960;28;20369;-50
2023/08/20 11:13:35;;;;;;;2.58;1.00;;;;;;;34.47;29.71;102172.00;5103498;28;20039;-49
2023/08/20 11:16:03;;;;;;;3.38;0.90;;;;;;;34.34;28.64;102175.03;5101873;28;20027;-49